createdAt,value
2023-04-05T00:00:08.934Z,1.00
2023-04-05T00:00:32.823Z,1.00
2023-04-05T00:00:57.768Z,1.00
2023-04-05T00:01:20.830Z,1.10
2023-04-05T00:01:45.779Z,1.10
2023-04-05T00:02:11.529Z,1.00
2023-04-05T00:02:34.746Z,1.10
2023-04-05T00:03:01.353Z,1.00
2023-04-05T00:03:27.071Z,1.00
2023-04-05T00:03:49.978Z,1.00
2023-04-05T00:04:14.712Z,1.10
2023-04-05T00:04:39.044Z,1.10
2023-04-05T00:05:06.003Z,1.10
2023-04-05T00:05:34.261Z,1.10
2023-04-05T00:05:56.990Z,1.00
2023-04-05T00:06:22.289Z,1.10
2023-04-05T00:06:46.579Z,1.00
2023-04-05T00:07:11.834Z,1.00
2023-04-05T00:07:35.233Z,1.00
2023-04-05T00:08:01.134Z,0.90
2023-04-05T00:08:24.069Z,1.00
2023-04-05T00:08:50.132Z,1.00
2023-04-05T00:09:13.585Z,0.90
2023-04-05T00:09:38.804Z,0.90
2023-04-05T00:10:01.686Z,0.90
2023-04-05T00:10:24.545Z,0.90
2023-04-05T00:10:47.277Z,0.90
2023-04-05T00:11:12.939Z,0.90
2023-04-05T00:11:35.645Z,0.90
2023-04-05T00:12:00.722Z,0.90
2023-04-05T00:12:24.876Z,0.90
2023-04-05T00:12:50.626Z,0.90
2023-04-05T00:13:13.359Z,0.90
2023-04-05T00:13:39.023Z,0.90
2023-04-05T00:14:02.162Z,0.80
2023-04-05T00:14:25.056Z,0.90
2023-04-05T00:14:49.975Z,0.80
2023-04-05T00:15:12.810Z,0.80
2023-04-05T00:15:35.843Z,0.80
2023-04-05T00:16:00.898Z,0.80
2023-04-05T00:16:23.790Z,0.80
2023-04-05T00:16:46.827Z,0.80
2023-04-05T00:17:12.883Z,0.70
2023-04-05T00:17:38.122Z,0.80
2023-04-05T00:18:04.135Z,0.70
2023-04-05T00:18:26.914Z,0.80
2023-04-05T00:18:52.557Z,0.70
2023-04-05T00:19:17.787Z,0.70
2023-04-05T00:19:42.856Z,0.80
2023-04-05T00:20:08.280Z,0.70
2023-04-05T00:20:31.024Z,0.80
2023-04-05T00:20:53.847Z,0.80
2023-04-05T00:21:16.602Z,0.80
2023-04-05T00:21:42.054Z,0.80
2023-04-05T00:22:04.964Z,0.80
2023-04-05T00:22:36.033Z,0.80
2023-04-05T00:23:01.037Z,0.80
2023-04-05T00:23:25.896Z,0.80
2023-04-05T00:23:49.021Z,0.80
2023-04-05T00:24:15.646Z,0.70
2023-04-05T00:24:43.788Z,0.70
2023-04-05T00:25:07.637Z,0.70
2023-04-05T00:25:32.942Z,0.70
2023-04-05T00:25:58.065Z,0.60
2023-04-05T00:26:23.516Z,0.60
2023-04-05T00:26:48.701Z,0.60
2023-04-05T00:27:13.537Z,0.50
2023-04-05T00:27:37.709Z,0.50
2023-04-05T00:28:04.068Z,0.40
2023-04-05T00:28:26.887Z,0.50
2023-04-05T00:28:49.759Z,0.40
2023-04-05T00:29:14.702Z,0.40
2023-04-05T00:29:37.509Z,0.40
2023-04-05T00:30:00.249Z,0.30
2023-04-05T00:30:25.389Z,0.30
2023-04-05T00:30:48.157Z,0.30
2023-04-05T00:31:13.278Z,0.30
2023-04-05T00:31:36.266Z,0.30
2023-04-05T00:32:01.862Z,0.30
2023-04-05T00:32:27.086Z,0.40
2023-04-05T00:32:50.421Z,0.40
2023-04-05T00:33:15.586Z,0.40
2023-04-05T00:33:38.363Z,0.40
2023-04-05T00:34:03.536Z,0.50
2023-04-05T00:34:26.428Z,0.50
2023-04-05T00:34:52.040Z,0.50
2023-04-05T00:35:14.826Z,0.50
2023-04-05T00:35:37.525Z,0.50
2023-04-05T00:36:10.098Z,0.50
2023-04-05T00:36:35.338Z,0.60
2023-04-05T00:37:00.604Z,0.60
2023-04-05T00:37:25.783Z,0.60
2023-04-05T00:37:48.609Z,0.60
2023-04-05T00:38:11.386Z,0.60
2023-04-05T00:38:36.358Z,0.60
2023-04-05T00:38:59.000Z,0.60
2023-04-05T00:39:21.766Z,0.60
2023-04-05T00:39:46.715Z,0.60
2023-04-05T00:40:10.723Z,0.60
2023-04-05T00:40:35.530Z,0.60
2023-04-05T00:40:58.298Z,0.50
2023-04-05T00:41:21.465Z,0.50
2023-04-05T00:41:48.745Z,0.50
2023-04-05T00:42:11.791Z,0.50
2023-04-05T00:42:36.971Z,0.50
2023-04-05T00:43:03.276Z,0.50
2023-04-05T00:43:28.446Z,0.50
2023-04-05T00:43:51.182Z,0.50
2023-04-05T00:44:16.274Z,0.40
2023-04-05T00:44:39.077Z,0.40
2023-04-05T00:45:04.029Z,0.40
2023-04-05T00:45:27.524Z,0.40
2023-04-05T00:45:53.252Z,0.40
2023-04-05T00:46:18.466Z,0.30
2023-04-05T00:46:43.770Z,0.30
2023-04-05T00:47:09.414Z,0.30
2023-04-05T00:47:32.093Z,0.30
2023-04-05T00:47:57.233Z,0.30
2023-04-05T00:48:20.319Z,0.30
2023-04-05T00:48:45.309Z,0.30
2023-04-05T00:49:08.156Z,0.30
2023-04-05T00:49:33.061Z,0.30
2023-04-05T00:49:55.773Z,0.30
2023-04-05T00:50:18.520Z,0.20
2023-04-05T00:50:43.444Z,0.20
2023-04-05T00:51:09.780Z,0.20
2023-04-05T00:51:35.599Z,0.30
2023-04-05T00:51:58.410Z,0.30
2023-04-05T00:52:23.505Z,0.30
2023-04-05T00:52:48.751Z,0.50
2023-04-05T00:53:11.474Z,0.40
2023-04-05T00:53:36.650Z,0.40
2023-04-05T00:53:59.459Z,0.40
2023-04-05T00:54:22.307Z,0.50
2023-04-05T00:54:45.103Z,0.50
2023-04-05T00:55:10.732Z,0.50
2023-04-05T00:55:34.293Z,0.50
2023-04-05T00:55:57.052Z,0.50
2023-04-05T00:56:22.742Z,0.50
2023-04-05T00:56:46.030Z,0.50
2023-04-05T00:57:09.296Z,0.50
2023-04-05T00:57:35.045Z,0.50
2023-04-05T00:57:58.280Z,0.50
2023-04-05T00:58:24.817Z,0.40
2023-04-05T00:58:48.901Z,0.40
2023-04-05T00:59:13.867Z,0.40
2023-04-05T00:59:36.578Z,0.40
2023-04-05T00:59:59.441Z,0.40
2023-04-05T01:00:25.448Z,0.40
2023-04-05T01:00:51.541Z,0.40
2023-04-05T01:01:17.178Z,0.40
2023-04-05T01:01:40.727Z,0.40
2023-04-05T01:02:06.713Z,0.40
2023-04-05T01:02:32.295Z,0.40
2023-04-05T01:03:01.931Z,0.40
2023-04-05T01:03:26.166Z,0.40
2023-04-05T01:03:54.931Z,0.40
2023-04-05T01:04:23.879Z,0.40
2023-04-05T01:04:50.405Z,0.40
2023-04-05T01:05:20.807Z,0.40
2023-04-05T01:05:47.350Z,0.50
2023-04-05T01:06:18.103Z,0.50
2023-04-05T01:06:51.568Z,0.40
2023-04-05T01:07:26.408Z,0.40
2023-04-05T01:07:51.900Z,0.40
2023-04-05T01:08:17.981Z,0.40
2023-04-05T01:08:47.437Z,0.30
2023-04-05T01:09:18.723Z,0.40
2023-04-05T01:09:48.474Z,0.30
2023-04-05T01:10:12.189Z,0.30
2023-04-05T01:10:39.448Z,0.30
2023-04-05T01:11:04.445Z,0.30
2023-04-05T01:11:29.596Z,0.30
2023-04-05T01:11:55.874Z,0.30
2023-04-05T01:12:19.964Z,0.30
2023-04-05T01:12:45.267Z,0.30
2023-04-05T01:13:08.988Z,0.30
2023-04-05T01:13:35.512Z,0.30
2023-04-05T01:14:01.561Z,0.30
2023-04-05T01:14:24.292Z,0.30
2023-04-05T01:14:50.508Z,0.30
2023-04-05T01:15:14.111Z,0.30
2023-04-05T01:15:39.964Z,0.30
2023-04-05T01:16:03.018Z,0.30
2023-04-05T01:16:28.287Z,0.30
2023-04-05T01:16:51.454Z,0.20
2023-04-05T01:17:17.340Z,0.20
2023-04-05T01:17:42.083Z,0.20
2023-04-05T01:18:06.450Z,0.20
2023-04-05T01:18:33.133Z,0.20
2023-04-05T01:18:58.722Z,0.20
2023-04-05T01:19:21.470Z,0.20
2023-04-05T01:19:48.439Z,0.20
2023-04-05T01:20:13.104Z,0.20
2023-04-05T01:20:41.395Z,0.20
2023-04-05T01:21:18.610Z,0.20
2023-04-05T01:22:14.375Z,0.20
2023-04-05T01:23:05.170Z,0.20
2023-04-05T01:23:39.437Z,0.20
2023-04-05T01:24:10.052Z,0.10
2023-04-05T01:24:38.918Z,0.10
2023-04-05T01:25:20.967Z,0.10
2023-04-05T01:26:15.199Z,0.10
2023-04-05T01:26:53.879Z,0.10
2023-04-05T01:27:19.363Z,0.10
2023-04-05T01:28:00.334Z,0.10
2023-04-05T01:28:45.954Z,0.10
2023-04-05T01:29:56.250Z,0.00
2023-04-05T01:30:20.917Z,0.10
2023-04-05T01:30:46.633Z,0.10
2023-04-05T01:31:12.574Z,0.10
2023-04-05T01:31:39.422Z,0.10
2023-04-05T01:32:09.478Z,0.10
2023-04-05T01:32:40.559Z,0.10
2023-04-05T01:33:08.824Z,0.10
2023-04-05T01:33:35.855Z,0.10
2023-04-05T01:34:04.724Z,0.10
2023-04-05T01:34:31.349Z,0.10
2023-04-05T01:35:11.551Z,0.10
2023-04-05T01:35:39.109Z,0.10
2023-04-05T01:36:04.869Z,0.10
2023-04-05T01:36:31.554Z,0.00
2023-04-05T01:36:58.718Z,0.00
2023-04-05T01:37:25.550Z,0.00
2023-04-05T01:37:50.137Z,0.00
2023-04-05T01:38:14.503Z,0.00
2023-04-05T01:38:38.280Z,0.00
2023-04-05T01:39:04.122Z,0.00
2023-04-05T01:39:26.899Z,0.00
2023-04-05T01:39:50.670Z,0.00
2023-04-05T01:40:13.455Z,0.00
2023-04-05T01:40:38.876Z,0.00
2023-04-05T01:41:01.971Z,0.00
2023-04-05T01:41:27.208Z,0.00
2023-04-05T01:41:49.937Z,0.00
2023-04-05T01:42:14.956Z,0.00
2023-04-05T01:42:37.687Z,-0.10
2023-04-05T01:43:02.634Z,0.00
2023-04-05T01:43:25.400Z,-0.10
2023-04-05T01:43:48.991Z,-0.10
2023-04-05T01:44:12.941Z,-0.10
2023-04-05T01:44:35.881Z,-0.10
2023-04-05T01:44:59.182Z,-0.20
2023-04-05T01:45:23.506Z,-0.20
2023-04-05T01:45:46.799Z,-0.20
2023-04-05T01:46:09.443Z,-0.20
2023-04-05T01:46:32.401Z,-0.20
2023-04-05T01:46:55.067Z,-0.20
2023-04-05T01:47:17.929Z,-0.20
2023-04-05T01:47:40.716Z,-0.20
2023-04-05T01:48:03.787Z,-0.20
2023-04-05T01:48:26.857Z,-0.10
2023-04-05T01:48:49.583Z,-0.20
2023-04-05T01:49:12.271Z,-0.20
2023-04-05T01:49:37.563Z,-0.20
2023-04-05T01:50:00.521Z,-0.10
2023-04-05T01:50:25.582Z,-0.20
2023-04-05T01:50:49.436Z,-0.20
2023-04-05T01:51:12.513Z,-0.20
2023-04-05T01:51:35.224Z,-0.20
2023-04-05T01:51:57.934Z,-0.20
2023-04-05T01:52:20.652Z,-0.20
2023-04-05T01:52:43.391Z,-0.20
2023-04-05T01:53:07.628Z,-0.30
2023-04-05T01:53:30.989Z,-0.20
2023-04-05T01:53:53.712Z,-0.20
2023-04-05T01:54:16.805Z,-0.20
2023-04-05T01:54:42.655Z,-0.30
2023-04-05T01:55:06.793Z,-0.30
2023-04-05T01:55:29.501Z,-0.30
2023-04-05T01:55:52.124Z,-0.30
2023-04-05T01:56:14.966Z,-0.30
2023-04-05T01:56:37.712Z,-0.30
2023-04-05T01:57:00.555Z,-0.30
2023-04-05T01:57:23.774Z,-0.30
2023-04-05T01:57:46.647Z,-0.30
2023-04-05T01:58:09.515Z,-0.30
2023-04-05T01:58:32.725Z,-0.30
2023-04-05T01:58:55.422Z,-0.30
2023-04-05T01:59:18.277Z,-0.30
2023-04-05T01:59:44.230Z,-0.30
2023-04-05T02:00:08.828Z,-0.40
2023-04-05T02:00:33.257Z,-0.40
2023-04-05T02:00:56.339Z,-0.40
2023-04-05T02:01:19.300Z,-0.40
2023-04-05T02:01:42.023Z,-0.40
2023-04-05T02:02:04.728Z,-0.40
2023-04-05T02:02:27.692Z,-0.40
2023-04-05T02:02:50.850Z,-0.40
2023-04-05T02:03:13.664Z,-0.40
2023-04-05T02:03:37.629Z,-0.30
2023-04-05T02:04:00.675Z,-0.30
2023-04-05T02:04:23.475Z,-0.40
2023-04-05T02:04:46.312Z,-0.30
2023-04-05T02:05:09.458Z,-0.40
2023-04-05T02:05:32.194Z,-0.40
2023-04-05T02:05:55.040Z,-0.40
2023-04-05T02:06:17.813Z,-0.40
2023-04-05T02:06:42.376Z,-0.40
2023-04-05T02:07:05.487Z,-0.40
2023-04-05T02:07:28.309Z,-0.40
2023-04-05T02:07:53.260Z,-0.40
2023-04-05T02:08:16.553Z,-0.40
2023-04-05T02:08:39.385Z,-0.40
2023-04-05T02:09:02.093Z,-0.40
2023-04-05T02:09:25.001Z,-0.40
2023-04-05T02:09:47.684Z,-0.50
2023-04-05T02:10:10.709Z,-0.40
2023-04-05T02:10:33.560Z,-0.50
2023-04-05T02:10:56.484Z,-0.60
2023-04-05T02:11:19.216Z,-0.60
2023-04-05T02:11:41.948Z,-0.60
2023-04-05T02:12:04.892Z,-0.60
2023-04-05T02:12:27.679Z,-0.70
2023-04-05T02:12:50.691Z,-0.70
2023-04-05T02:13:14.125Z,-0.70
2023-04-05T02:13:36.871Z,-0.70
2023-04-05T02:13:59.606Z,-0.70
2023-04-05T02:14:22.436Z,-0.70
2023-04-05T02:14:45.297Z,-0.70
2023-04-05T02:15:09.626Z,-0.70
2023-04-05T02:15:34.284Z,-0.70
2023-04-05T02:15:57.158Z,-0.70
2023-04-05T02:16:20.007Z,-0.70
2023-04-05T02:16:43.405Z,-0.80
2023-04-05T02:17:06.540Z,-0.80
2023-04-05T02:17:34.352Z,-0.80
2023-04-05T02:17:57.312Z,-0.80
2023-04-05T02:18:22.771Z,-0.80
2023-04-05T02:18:50.865Z,-0.70
2023-04-05T02:19:16.029Z,-0.70
2023-04-05T02:19:41.165Z,-0.70
2023-04-05T02:20:07.214Z,-0.70
2023-04-05T02:20:30.000Z,-0.70
2023-04-05T02:20:52.697Z,-0.70
2023-04-05T02:21:17.122Z,-0.70
2023-04-05T02:21:41.050Z,-0.70
2023-04-05T02:22:04.154Z,-0.70
2023-04-05T02:22:26.888Z,-0.70
2023-04-05T02:22:49.670Z,-0.70
2023-04-05T02:23:12.422Z,-0.80
2023-04-05T02:23:35.157Z,-0.80
2023-04-05T02:23:57.887Z,-0.80
2023-04-05T02:24:20.663Z,-0.80
2023-04-05T02:24:43.436Z,-0.80
2023-04-05T02:25:08.967Z,-0.80
2023-04-05T02:25:31.686Z,-0.80
2023-04-05T02:25:54.385Z,-0.80
2023-04-05T02:26:17.136Z,-0.80
2023-04-05T02:26:39.994Z,-0.80
2023-04-05T02:27:02.809Z,-0.90
2023-04-05T02:27:25.509Z,-0.90
2023-04-05T02:27:48.414Z,-0.90
2023-04-05T02:28:11.897Z,-0.90
2023-04-05T02:28:34.882Z,-0.90
2023-04-05T02:28:57.610Z,-0.80
2023-04-05T02:29:20.851Z,-0.80
2023-04-05T02:29:43.570Z,-0.90
2023-04-05T02:30:08.113Z,-0.90
2023-04-05T02:30:31.855Z,-0.80
2023-04-05T02:30:56.278Z,-0.90
2023-04-05T02:31:19.012Z,-0.90
2023-04-05T02:31:41.717Z,-0.90
2023-04-05T02:32:04.750Z,-0.90
2023-04-05T02:32:30.208Z,-0.90
2023-04-05T02:32:52.909Z,-0.90
2023-04-05T02:33:15.645Z,-0.90
2023-04-05T02:33:38.406Z,-0.90
2023-04-05T02:34:01.204Z,-0.90
2023-04-05T02:34:23.965Z,-0.90
2023-04-05T02:34:46.649Z,-0.90
2023-04-05T02:35:10.880Z,-1.00
2023-04-05T02:35:33.598Z,-0.90
2023-04-05T02:35:56.389Z,-0.90
2023-04-05T02:36:19.097Z,-0.90
2023-04-05T02:36:44.323Z,-0.90
2023-04-05T02:37:07.081Z,-1.00
2023-04-05T02:37:29.855Z,-0.90
2023-04-05T02:37:52.812Z,-0.90
2023-04-05T02:38:15.669Z,-0.90
2023-04-05T02:38:38.426Z,-0.90
2023-04-05T02:39:01.288Z,-1.00
2023-04-05T02:39:26.417Z,-0.90
2023-04-05T02:39:49.316Z,-0.90
2023-04-05T02:40:15.217Z,-0.80
2023-04-05T02:40:42.347Z,-0.90
2023-04-05T02:41:08.956Z,-0.90
2023-04-05T02:41:31.712Z,-0.90
2023-04-05T02:41:54.495Z,-0.90
2023-04-05T02:42:17.206Z,-0.90
2023-04-05T02:42:42.375Z,-1.00
2023-04-05T02:43:05.486Z,-1.00
2023-04-05T02:43:28.226Z,-1.00
2023-04-05T02:43:50.984Z,-1.00
2023-04-05T02:44:15.860Z,-1.10
2023-04-05T02:44:38.834Z,-1.00
2023-04-05T02:45:01.559Z,-1.00
2023-04-05T02:45:26.503Z,-1.10
2023-04-05T02:45:49.233Z,-1.10
2023-04-05T02:46:13.628Z,-1.10
2023-04-05T02:46:36.558Z,-1.10
2023-04-05T02:46:59.434Z,-1.00
2023-04-05T02:47:22.433Z,-1.00
2023-04-05T02:47:45.196Z,-1.00
2023-04-05T02:48:07.988Z,-0.90
2023-04-05T02:48:31.233Z,-0.90
2023-04-05T02:48:54.006Z,-0.90
2023-04-05T02:49:17.001Z,-0.90
2023-04-05T02:49:39.977Z,-0.90
2023-04-05T02:50:02.785Z,-0.90
2023-04-05T02:50:25.578Z,-0.90
2023-04-05T02:50:49.175Z,-0.90
2023-04-05T02:51:12.020Z,-0.90
2023-04-05T02:51:34.842Z,-0.90
2023-04-05T02:51:57.631Z,-1.00
2023-04-05T02:52:20.339Z,-0.90
2023-04-05T02:52:43.384Z,-1.00
2023-04-05T02:53:06.134Z,-1.00
2023-04-05T02:53:28.854Z,-1.00
2023-04-05T02:53:51.543Z,-1.00
2023-04-05T02:54:14.243Z,-1.00
2023-04-05T02:54:37.033Z,-1.00
2023-04-05T02:54:59.944Z,-1.00
2023-04-05T02:55:22.731Z,-1.00
2023-04-05T02:55:54.631Z,-1.00
2023-04-05T02:56:17.300Z,-1.00
2023-04-05T02:56:40.017Z,-1.00
2023-04-05T02:57:03.544Z,-0.90
2023-04-05T02:57:26.888Z,-1.00
2023-04-05T02:57:49.618Z,-0.90
2023-04-05T02:58:14.451Z,-0.90
2023-04-05T02:58:37.230Z,-0.90
2023-04-05T02:59:00.032Z,-0.90
2023-04-05T02:59:23.471Z,-0.90
2023-04-05T02:59:46.420Z,-0.90
2023-04-05T03:00:11.110Z,-0.80
2023-04-05T03:00:34.016Z,-0.90
2023-04-05T03:00:56.970Z,-0.90
2023-04-05T03:01:21.174Z,-0.90
2023-04-05T03:01:44.810Z,-0.90
2023-04-05T03:02:07.675Z,-0.90
2023-04-05T03:02:30.417Z,-1.00
2023-04-05T03:02:53.391Z,-1.00
2023-04-05T03:03:16.298Z,-1.00
2023-04-05T03:03:40.714Z,-1.00
2023-04-05T03:04:03.893Z,-1.00
2023-04-05T03:04:27.086Z,-1.00
2023-04-05T03:04:52.542Z,-1.00
2023-04-05T03:05:18.928Z,-1.00
2023-04-05T03:05:43.529Z,-1.00
2023-04-05T03:06:10.274Z,-1.10
2023-04-05T03:06:33.440Z,-1.10
2023-04-05T03:06:57.500Z,-1.10
2023-04-05T03:07:20.298Z,-1.00
2023-04-05T03:07:47.056Z,-1.00
2023-04-05T03:08:09.764Z,-1.00
2023-04-05T03:08:32.813Z,-0.90
2023-04-05T03:08:56.193Z,-1.00
2023-04-05T03:09:18.981Z,-1.00
2023-04-05T03:09:44.889Z,-0.90
2023-04-05T03:10:09.518Z,-1.00
2023-04-05T03:10:36.333Z,-0.90
2023-04-05T03:10:59.354Z,-0.90
2023-04-05T03:11:24.381Z,-0.90
2023-04-05T03:11:47.111Z,-0.90
2023-04-05T03:12:09.824Z,-1.00
2023-04-05T03:12:32.540Z,-1.00
2023-04-05T03:12:55.195Z,-1.00
2023-04-05T03:13:17.914Z,-1.00
2023-04-05T03:13:40.868Z,-1.00
2023-04-05T03:14:03.600Z,-1.10
2023-04-05T03:14:26.396Z,-1.10
2023-04-05T03:14:49.358Z,-1.10
2023-04-05T03:15:14.470Z,-1.10
2023-04-05T03:15:37.318Z,-1.10
2023-04-05T03:16:00.149Z,-1.10
2023-04-05T03:16:24.364Z,-1.10
2023-04-05T03:16:47.157Z,-1.10
2023-04-05T03:17:09.932Z,-1.10
2023-04-05T03:17:32.701Z,-1.20
2023-04-05T03:17:57.741Z,-1.20
2023-04-05T03:18:20.918Z,-1.10
2023-04-05T03:18:43.739Z,-1.10
2023-04-05T03:19:08.680Z,-1.10
2023-04-05T03:19:35.672Z,-1.10
2023-04-05T03:20:01.211Z,-1.10
2023-04-05T03:20:23.960Z,-1.10
2023-04-05T03:20:50.437Z,-1.10
2023-04-05T03:21:13.240Z,-1.00
2023-04-05T03:21:36.075Z,-1.10
2023-04-05T03:21:58.948Z,-1.00
2023-04-05T03:22:22.246Z,-1.00
2023-04-05T03:22:47.249Z,-1.10
2023-04-05T03:23:11.208Z,-1.00
2023-04-05T03:23:34.106Z,-1.10
2023-04-05T03:23:56.912Z,-1.00
2023-04-05T03:24:19.743Z,-1.10
2023-04-05T03:24:42.815Z,-1.10
2023-04-05T03:25:06.710Z,-1.10
2023-04-05T03:25:29.482Z,-1.10
2023-04-05T03:25:55.089Z,-1.10
2023-04-05T03:26:17.889Z,-1.10
2023-04-05T03:26:40.775Z,-1.10
2023-04-05T03:27:06.074Z,-1.10
2023-04-05T03:27:29.455Z,-1.20
2023-04-05T03:27:53.024Z,-1.20
2023-04-05T03:28:15.845Z,-1.20
2023-04-05T03:28:38.567Z,-1.20
2023-04-05T03:29:01.692Z,-1.20
2023-04-05T03:29:24.486Z,-1.30
2023-04-05T03:29:47.395Z,-1.30
2023-04-05T03:30:14.294Z,-1.30
2023-04-05T03:30:37.036Z,-1.30
2023-04-05T03:30:59.823Z,-1.30
2023-04-05T03:31:24.341Z,-1.30
2023-04-05T03:31:47.260Z,-1.30
2023-04-05T03:32:12.036Z,-1.30
2023-04-05T03:32:34.839Z,-1.30
2023-04-05T03:32:57.773Z,-1.30
2023-04-05T03:33:21.148Z,-1.30
2023-04-05T03:33:43.855Z,-1.30
2023-04-05T03:34:06.921Z,-1.30
2023-04-05T03:34:31.012Z,-1.30
2023-04-05T03:34:53.674Z,-1.20
2023-04-05T03:35:19.404Z,-1.30
2023-04-05T03:35:42.546Z,-1.30
2023-04-05T03:36:06.420Z,-1.20
2023-04-05T03:36:41.827Z,-1.20
2023-04-05T03:37:04.603Z,-1.20
2023-04-05T03:37:27.358Z,-1.20
2023-04-05T03:37:50.687Z,-1.20
2023-04-05T03:38:13.408Z,-1.20
2023-04-05T03:38:36.296Z,-1.20
2023-04-05T03:38:59.134Z,-1.20
2023-04-05T03:39:21.862Z,-1.20
2023-04-05T03:39:44.905Z,-1.20
2023-04-05T03:40:10.779Z,-1.20
2023-04-05T03:40:33.536Z,-1.30
2023-04-05T03:40:56.225Z,-1.20
2023-04-05T03:41:18.913Z,-1.20
2023-04-05T03:41:41.735Z,-1.20
2023-04-05T03:42:04.736Z,-1.20
2023-04-05T03:42:27.532Z,-1.20
2023-04-05T03:42:50.414Z,-1.20
2023-04-05T03:43:13.603Z,-1.30
2023-04-05T03:43:36.846Z,-1.20
2023-04-05T03:43:59.700Z,-1.20
2023-04-05T03:44:22.511Z,-1.20
2023-04-05T03:44:45.673Z,-1.20
2023-04-05T03:45:09.323Z,-1.20
2023-04-05T03:45:33.883Z,-1.20
2023-04-05T03:45:57.377Z,-1.20
2023-04-05T03:46:20.198Z,-1.20
2023-04-05T03:46:45.332Z,-1.20
2023-04-05T03:47:08.197Z,-1.20
2023-04-05T03:47:31.069Z,-1.20
2023-04-05T03:47:55.515Z,-1.20
2023-04-05T03:48:20.398Z,-1.20
2023-04-05T03:48:43.209Z,-1.10
2023-04-05T03:49:07.458Z,-1.10
2023-04-05T03:49:31.081Z,-1.10
2023-04-05T03:49:53.716Z,-1.10
2023-04-05T03:50:16.513Z,-1.10
2023-04-05T03:50:39.268Z,-1.10
2023-04-05T03:51:02.135Z,-1.10
2023-04-05T03:51:25.096Z,-1.10
2023-04-05T03:51:47.975Z,-1.10
2023-04-05T03:52:11.056Z,-1.10
2023-04-05T03:52:33.745Z,-1.10
2023-04-05T03:52:56.808Z,-1.10
2023-04-05T03:53:19.689Z,-1.10
2023-04-05T03:53:42.413Z,-1.10
2023-04-05T03:54:05.935Z,-1.10
2023-04-05T03:54:28.650Z,-1.10
2023-04-05T03:54:51.547Z,-1.10
2023-04-05T03:55:16.986Z,-1.10
2023-04-05T03:55:40.698Z,-1.10
2023-04-05T03:56:04.000Z,-1.10
2023-04-05T03:56:27.382Z,-1.10
2023-04-05T03:56:50.073Z,-1.10
2023-04-05T03:57:12.797Z,-1.10
2023-04-05T03:57:36.479Z,-1.10
2023-04-05T03:57:59.267Z,-1.10
2023-04-05T03:58:22.151Z,-1.10
2023-04-05T03:58:44.948Z,-1.10
2023-04-05T03:59:07.710Z,-1.10
2023-04-05T03:59:30.730Z,-1.10
2023-04-05T03:59:53.377Z,-1.10
2023-04-05T04:00:19.385Z,-1.10
2023-04-05T04:00:42.140Z,-1.10
2023-04-05T04:01:04.971Z,-1.20
2023-04-05T04:01:27.906Z,-1.20
2023-04-05T04:01:53.458Z,-1.20
2023-04-05T04:02:16.324Z,-1.20
2023-04-05T04:02:39.230Z,-1.30
2023-04-05T04:03:02.107Z,-1.30
2023-04-05T04:03:26.244Z,-1.30
2023-04-05T04:03:48.993Z,-1.30
2023-04-05T04:04:13.729Z,-1.30
2023-04-05T04:04:36.654Z,-1.30
2023-04-05T04:04:59.554Z,-1.30
2023-04-05T04:05:22.430Z,-1.30
2023-04-05T04:05:45.550Z,-1.40
2023-04-05T04:06:09.066Z,-1.30
2023-04-05T04:06:31.856Z,-1.40
2023-04-05T04:06:54.755Z,-1.40
2023-04-05T04:07:17.560Z,-1.40
2023-04-05T04:07:41.870Z,-1.30
2023-04-05T04:08:04.981Z,-1.40
2023-04-05T04:08:27.704Z,-1.40
2023-04-05T04:08:50.784Z,-1.30
2023-04-05T04:09:13.579Z,-1.40
2023-04-05T04:09:36.663Z,-1.30
2023-04-05T04:09:59.551Z,-1.30
2023-04-05T04:10:22.236Z,-1.40
2023-04-05T04:10:45.048Z,-1.40
2023-04-05T04:11:08.430Z,-1.40
2023-04-05T04:11:31.365Z,-1.40
2023-04-05T04:11:54.085Z,-1.40
2023-04-05T04:12:16.921Z,-1.40
2023-04-05T04:12:39.709Z,-1.40
2023-04-05T04:13:02.622Z,-1.40
2023-04-05T04:13:25.385Z,-1.40
2023-04-05T04:13:48.176Z,-1.50
2023-04-05T04:14:11.025Z,-1.50
2023-04-05T04:14:35.126Z,-1.50
2023-04-05T04:14:58.075Z,-1.50
2023-04-05T04:15:20.888Z,-1.50
2023-04-05T04:15:43.624Z,-1.50
2023-04-05T04:16:06.887Z,-1.50
2023-04-05T04:16:29.682Z,-1.50
2023-04-05T04:16:53.815Z,-1.50
2023-04-05T04:17:27.568Z,-1.50
2023-04-05T04:17:50.317Z,-1.50
2023-04-05T04:18:13.288Z,-1.50
2023-04-05T04:18:36.073Z,-1.50
2023-04-05T04:18:59.015Z,-1.50
2023-04-05T04:19:21.895Z,-1.50
2023-04-05T04:19:44.735Z,-1.50
2023-04-05T04:20:12.019Z,-1.50
2023-04-05T04:20:34.731Z,-1.50
2023-04-05T04:20:58.764Z,-1.50
2023-04-05T04:21:25.104Z,-1.50
2023-04-05T04:21:51.263Z,-1.50
2023-04-05T04:22:20.708Z,-1.50
2023-04-05T04:22:43.481Z,-1.40
2023-04-05T04:23:10.879Z,-1.50
2023-04-05T04:23:34.597Z,-1.50
2023-04-05T04:23:57.972Z,-1.50
2023-04-05T04:24:21.017Z,-1.50
2023-04-05T04:24:46.610Z,-1.40
2023-04-05T04:25:10.788Z,-1.40
2023-04-05T04:25:33.667Z,-1.40
2023-04-05T04:25:56.483Z,-1.40
2023-04-05T04:26:29.331Z,-1.40
2023-04-05T04:26:54.730Z,-1.50
2023-04-05T04:27:17.507Z,-1.40
2023-04-05T04:27:42.754Z,-1.30
2023-04-05T04:28:06.910Z,-1.50
2023-04-05T04:28:29.949Z,-1.50
2023-04-05T04:28:53.266Z,-1.50
2023-04-05T04:29:19.201Z,-1.50
2023-04-05T04:29:47.108Z,-1.50
2023-04-05T04:30:10.963Z,-1.50
2023-04-05T04:30:35.084Z,-1.50
2023-04-05T04:30:57.955Z,-1.50
2023-04-05T04:31:21.620Z,-1.50
2023-04-05T04:31:45.856Z,-1.50
2023-04-05T04:32:11.211Z,-1.50
2023-04-05T04:32:52.845Z,-1.50
2023-04-05T04:33:17.610Z,-1.40
2023-04-05T04:33:43.877Z,-1.40
2023-04-05T04:34:06.816Z,-1.40
2023-04-05T04:34:30.888Z,-1.40
2023-04-05T04:34:56.161Z,-1.40
2023-04-05T04:35:20.932Z,-1.30
2023-04-05T04:35:47.176Z,-1.30
2023-04-05T04:36:13.995Z,-1.30
2023-04-05T04:36:37.308Z,-1.30
2023-04-05T04:37:02.732Z,-1.30
2023-04-05T04:37:30.303Z,-1.40
2023-04-05T04:37:55.006Z,-1.30
2023-04-05T04:38:21.939Z,-1.30
2023-04-05T04:38:44.817Z,-1.30
2023-04-05T04:39:07.923Z,-1.30
2023-04-05T04:39:31.702Z,-1.30
2023-04-05T04:39:54.751Z,-1.30
2023-04-05T04:40:17.588Z,-1.30
2023-04-05T04:40:40.857Z,-1.30
2023-04-05T04:41:07.061Z,-1.30
2023-04-05T04:41:29.800Z,-1.20
2023-04-05T04:41:56.010Z,-1.20
2023-04-05T04:42:20.126Z,-1.20
2023-04-05T04:42:44.653Z,-1.20
2023-04-05T04:43:10.417Z,-1.20
2023-04-05T04:43:37.481Z,-1.20
2023-04-05T04:44:03.113Z,-1.10
2023-04-05T04:44:31.413Z,-1.20
2023-04-05T04:44:54.744Z,-1.10
2023-04-05T04:45:18.150Z,-1.10
2023-04-05T04:45:41.805Z,-1.10
2023-04-05T04:46:06.794Z,-1.10
2023-04-05T04:46:34.887Z,-1.10
2023-04-05T04:46:57.620Z,-1.00
2023-04-05T04:47:22.112Z,-1.10
2023-04-05T04:47:45.487Z,-1.00
2023-04-05T04:48:08.422Z,-1.00
2023-04-05T04:48:33.465Z,-1.00
2023-04-05T04:48:57.678Z,-1.00
2023-04-05T04:49:21.813Z,-0.90
2023-04-05T04:49:44.495Z,-1.00
2023-04-05T04:50:09.774Z,-1.00
2023-04-05T04:50:32.581Z,-0.90
2023-04-05T04:50:57.452Z,-0.90
2023-04-05T04:51:20.806Z,-0.90
2023-04-05T04:51:43.616Z,-0.80
2023-04-05T04:52:06.572Z,-0.80
2023-04-05T04:52:29.325Z,-0.80
2023-04-05T04:52:51.991Z,-0.80
2023-04-05T04:53:17.605Z,-0.80
2023-04-05T04:53:40.337Z,-0.70
2023-04-05T04:54:03.041Z,-0.70
2023-04-05T04:54:26.421Z,-0.60
2023-04-05T04:54:49.121Z,-0.70
2023-04-05T04:55:14.843Z,-0.60
2023-04-05T04:55:37.754Z,-0.60
2023-04-05T04:56:00.799Z,-0.60
2023-04-05T04:56:23.515Z,-0.50
2023-04-05T04:56:46.368Z,-0.50
2023-04-05T04:57:09.178Z,-0.50
2023-04-05T04:57:31.910Z,-0.50
2023-04-05T04:57:54.712Z,-0.40
2023-04-05T04:58:17.461Z,-0.40
2023-04-05T04:58:40.185Z,-0.40
2023-04-05T04:59:02.938Z,-0.30
2023-04-05T04:59:26.291Z,-0.30
2023-04-05T04:59:49.220Z,-0.40
2023-04-05T05:00:13.696Z,-0.30
2023-04-05T05:00:37.008Z,-0.30
2023-04-05T05:01:00.502Z,-0.30
2023-04-05T05:01:25.128Z,-0.30
2023-04-05T05:01:48.112Z,-0.30
2023-04-05T05:02:11.368Z,-0.30
2023-04-05T05:02:38.003Z,-0.30
2023-04-05T05:03:00.957Z,-0.20
2023-04-05T05:03:23.604Z,-0.20
2023-04-05T05:03:46.447Z,-0.20
2023-04-05T05:04:09.213Z,-0.20
2023-04-05T05:04:32.588Z,-0.10
2023-04-05T05:04:55.353Z,-0.10
2023-04-05T05:05:18.074Z,0.00
2023-04-05T05:05:43.704Z,0.00
2023-04-05T05:06:07.073Z,0.00
2023-04-05T05:06:30.280Z,0.00
2023-04-05T05:06:53.768Z,0.00
2023-04-05T05:07:17.808Z,0.10
2023-04-05T05:07:43.551Z,0.10
2023-04-05T05:08:06.246Z,0.10
2023-04-05T05:08:28.970Z,0.10
2023-04-05T05:08:54.137Z,0.10
2023-04-05T05:09:16.826Z,0.10
2023-04-05T05:09:39.441Z,0.20
2023-04-05T05:10:02.126Z,0.30
2023-04-05T05:10:25.076Z,0.20
2023-04-05T05:10:52.343Z,0.30
2023-04-05T05:11:15.066Z,0.30
2023-04-05T05:11:37.791Z,0.30
2023-04-05T05:12:02.118Z,0.30
2023-04-05T05:12:26.793Z,0.30
2023-04-05T05:12:49.592Z,0.30
2023-04-05T05:13:12.254Z,0.30
2023-04-05T05:13:35.003Z,0.30
2023-04-05T05:13:57.676Z,0.40
2023-04-05T05:14:20.678Z,0.40
2023-04-05T05:14:43.447Z,0.40
2023-04-05T05:15:07.404Z,0.40
2023-04-05T05:15:30.566Z,0.40
2023-04-05T05:15:53.227Z,0.50
2023-04-05T05:16:16.218Z,0.50
2023-04-05T05:16:38.957Z,0.50
2023-04-05T05:17:04.992Z,0.50
2023-04-05T05:17:27.669Z,0.50